sensor_id;sensor_type;location;lat;lon;timestamp;pressure;altitude;pressure_sealevel;temperature;humidity
65227;BME280;51805;49.012;12.104;2023-07-22T00:00:53;97716.91;;;24.96;39.14
65227;BME280;51805;49.012;12.104;2023-07-22T00:03:18;97720.44;;;24.96;39.07
65227;BME280;51805;49.012;12.104;2023-07-22T00:05:44;97716.72;;;24.92;39.04
65227;BME280;51805;49.012;12.104;2023-07-22T00:08:09;97720.34;;;25.01;38.90
65227;BME280;51805;49.012;12.104;2023-07-22T00:10:34;97720.34;;;25.01;38.90
65227;BME280;51805;49.012;12.104;2023-07-22T00:12:59;97704.63;;;24.98;38.91
65227;BME280;51805;49.012;12.104;2023-07-22T00:15:25;97724.16;;;25.00;38.84
65227;BME280;51805;49.012;12.104;2023-07-22T00:17:50;97722.53;;;24.99;38.83
65227;BME280;51805;49.012;12.104;2023-07-22T00:20:16;97719.53;;;25.01;38.78
65227;BME280;51805;49.012;12.104;2023-07-22T00:22:41;97720.94;;;24.98;38.72
65227;BME280;51805;49.012;12.104;2023-07-22T00:25:09;97715.50;;;24.98;38.74
65227;BME280;51805;49.012;12.104;2023-07-22T00:27:34;97711.28;;;24.92;38.80
65227;BME280;51805;49.012;12.104;2023-07-22T00:30:00;97718.69;;;24.87;39.25
65227;BME280;51805;49.012;12.104;2023-07-22T00:32:25;97711.28;;;24.92;38.96
65227;BME280;51805;49.012;12.104;2023-07-22T00:34:50;97715.78;;;24.83;39.06
65227;BME280;51805;49.012;12.104;2023-07-22T00:37:15;97708.66;;;24.87;38.96
65227;BME280;51805;49.012;12.104;2023-07-22T00:39:41;97701.38;;;24.69;39.16
65227;BME280;51805;49.012;12.104;2023-07-22T00:42:06;97707.13;;;24.81;39.13
65227;BME280;51805;49.012;12.104;2023-07-22T00:44:31;97711.97;;;24.84;38.88
65227;BME280;51805;49.012;12.104;2023-07-22T00:46:57;97703.81;;;24.84;38.85
65227;BME280;51805;49.012;12.104;2023-07-22T00:49:23;97704.22;;;24.91;38.71
65227;BME280;51805;49.012;12.104;2023-07-22T00:51:48;97703.81;;;24.84;38.79
65227;BME280;51805;49.012;12.104;2023-07-22T00:54:14;97689.59;;;24.74;39.07
65227;BME280;51805;49.012;12.104;2023-07-22T00:56:40;97697.34;;;24.80;38.77
65227;BME280;51805;49.012;12.104;2023-07-22T00:59:05;97690.31;;;24.79;38.84
65227;BME280;51805;49.012;12.104;2023-07-22T01:01:31;97692.72;;;24.81;38.76
65227;BME280;51805;49.012;12.104;2023-07-22T01:03:56;97692.94;;;24.84;38.74
65227;BME280;51805;49.012;12.104;2023-07-22T01:06:22;97688.00;;;24.86;38.67
65227;BME280;51805;49.012;12.104;2023-07-22T01:08:48;97686.69;;;24.84;38.78
65227;BME280;51805;49.012;12.104;2023-07-22T01:11:13;97685.88;;;24.83;38.73
65227;BME280;51805;49.012;12.104;2023-07-22T01:13:39;97678.53;;;24.84;38.61
65227;BME280;51805;49.012;12.104;2023-07-22T01:16:05;97674.59;;;24.76;38.61
65227;BME280;51805;49.012;12.104;2023-07-22T01:18:32;97676.41;;;24.81;38.58
65227;BME280;51805;49.012;12.104;2023-07-22T01:20:58;97679.22;;;24.76;38.65
65227;BME280;51805;49.012;12.104;2023-07-22T01:23:23;97687.81;;;24.83;38.73
65227;BME280;51805;49.012;12.104;2023-07-22T01:25:49;97681.03;;;24.80;38.63
65227;BME280;51805;49.012;12.104;2023-07-22T01:28:15;97681.47;;;24.74;38.75
65227;BME280;51805;49.012;12.104;2023-07-22T01:30:40;97683.66;;;24.72;38.68
65227;BME280;51805;49.012;12.104;2023-07-22T01:33:05;97690.81;;;24.81;38.59
65227;BME280;51805;49.012;12.104;2023-07-22T01:35:31;97693.63;;;24.76;38.60
65227;BME280;51805;49.012;12.104;2023-07-22T01:37:56;97696.03;;;24.78;38.65
65227;BME280;51805;49.012;12.104;2023-07-22T01:40:21;97694.22;;;24.73;38.83
65227;BME280;51805;49.012;12.104;2023-07-22T01:42:46;97689.31;;;24.75;38.58
65227;BME280;51805;49.012;12.104;2023-07-22T01:45:12;97689.91;;;24.72;38.76
65227;BME280;51805;49.012;12.104;2023-07-22T01:47:38;97698.06;;;24.72;38.72
65227;BME280;51805;49.012;12.104;2023-07-22T01:50:04;97675.47;;;24.58;38.68
65227;BME280;51805;49.012;12.104;2023-07-22T01:52:30;97694.00;;;24.70;38.79
65227;BME280;51805;49.012;12.104;2023-07-22T01:54:55;97697.03;;;24.68;38.88
65227;BME280;51805;49.012;12.104;2023-07-22T01:57:20;97696.13;;;24.73;38.47
65227;BME280;51805;49.012;12.104;2023-07-22T01:59:46;97697.75;;;24.74;38.78
65227;BME280;51805;49.012;12.104;2023-07-22T02:02:11;97686.22;;;24.63;38.84
65227;BME280;51805;49.012;12.104;2023-07-22T02:04:36;97704.09;;;24.69;38.69
65227;BME280;51805;49.012;12.104;2023-07-22T02:07:02;97703.59;;;24.67;38.89
65227;BME280;51805;49.012;12.104;2023-07-22T02:09:27;97695.47;;;24.62;38.78
65227;BME280;51805;49.012;12.104;2023-07-22T02:11:52;97704.09;;;24.69;38.85
65227;BME280;51805;49.012;12.104;2023-07-22T02:14:17;97694.47;;;24.58;38.96
65227;BME280;51805;49.012;12.104;2023-07-22T02:16:43;97711.44;;;24.69;38.92
65227;BME280;51805;49.012;12.104;2023-07-22T02:19:08;97702.31;;;24.59;38.92
65227;BME280;51805;49.012;12.104;2023-07-22T02:21:33;97705.22;;;24.63;38.99
65227;BME280;51805;49.012;12.104;2023-07-22T02:23:59;97712.84;;;24.66;38.87
65227;BME280;51805;49.012;12.104;2023-07-22T02:26:24;97704.16;;;24.64;38.91
65227;BME280;51805;49.012;12.104;2023-07-22T02:28:49;97713.63;;;24.67;38.77
65227;BME280;51805;49.012;12.104;2023-07-22T02:31:14;97719.63;;;24.63;39.03
65227;BME280;51805;49.012;12.104;2023-07-22T02:33:40;97716.34;;;24.67;38.75
65227;BME280;51805;49.012;12.104;2023-07-22T02:36:05;97709.59;;;24.64;38.97
65227;BME280;51805;49.012;12.104;2023-07-22T02:38:30;97699.91;;;24.58;39.02
65227;BME280;51805;49.012;12.104;2023-07-22T02:41:02;97712.59;;;24.63;39.02
65227;BME280;51805;49.012;12.104;2023-07-22T02:43:27;97710.78;;;24.58;38.91
65227;BME280;51805;49.012;12.104;2023-07-22T02:45:53;97713.19;;;24.59;39.04
65227;BME280;51805;49.012;12.104;2023-07-22T02:48:18;97710.03;;;24.52;39.10
65227;BME280;51805;49.012;12.104;2023-07-22T02:50:43;97704.81;;;24.56;39.02
65227;BME280;51805;49.012;12.104;2023-07-22T02:53:09;97698.47;;;24.47;39.04
65227;BME280;51805;49.012;12.104;2023-07-22T02:55:34;97710.56;;;24.54;38.88
65227;BME280;51805;49.012;12.104;2023-07-22T02:57:59;97716.00;;;24.54;39.08
65227;BME280;51805;49.012;12.104;2023-07-22T03:00:24;97708.75;;;24.50;39.11
65227;BME280;51805;49.012;12.104;2023-07-22T03:02:54;97712.06;;;24.47;38.99
65227;BME280;51805;49.012;12.104;2023-07-22T03:05:20;97707.44;;;24.47;39.16
65227;BME280;51805;49.012;12.104;2023-07-22T03:07:45;97717.41;;;24.52;38.99
65227;BME280;51805;49.012;12.104;2023-07-22T03:10:10;97719.59;;;24.50;39.00
65227;BME280;51805;49.012;12.104;2023-07-22T03:12:36;97714.47;;;24.48;39.07
65227;BME280;51805;49.012;12.104;2023-07-22T03:15:03;97720.13;;;24.52;39.08
65227;BME280;51805;49.012;12.104;2023-07-22T03:17:28;97708.00;;;24.44;39.04
65227;BME280;51805;49.012;12.104;2023-07-22T03:19:53;97723.44;;;24.49;39.03
65227;BME280;51805;49.012;12.104;2023-07-22T03:22:19;97724.03;;;24.46;39.11
65227;BME280;51805;49.012;12.104;2023-07-22T03:24:45;97723.00;;;24.42;39.24
65227;BME280;51805;49.012;12.104;2023-07-22T03:27:10;97718.16;;;24.39;39.06
65227;BME280;51805;49.012;12.104;2023-07-22T03:29:36;97735.28;;;24.39;39.20
65227;BME280;51805;49.012;12.104;2023-07-22T03:32:02;97738.88;;;24.35;39.17
65227;BME280;51805;49.012;12.104;2023-07-22T03:34:27;97734.53;;;24.34;39.26
65227;BME280;51805;49.012;12.104;2023-07-22T03:36:53;97737.47;;;24.37;39.11
65227;BME280;51805;49.012;12.104;2023-07-22T03:39:18;97738.88;;;24.35;39.21
65227;BME280;51805;49.012;12.104;2023-07-22T03:41:43;97740.78;;;24.34;39.14
65227;BME280;51805;49.012;12.104;2023-07-22T03:44:09;97738.25;;;24.24;39.04
65227;BME280;51805;49.012;12.104;2023-07-22T03:46:34;97737.94;;;24.26;39.21
65227;BME280;51805;49.012;12.104;2023-07-22T03:48:59;97742.03;;;24.23;39.21
65227;BME280;51805;49.012;12.104;2023-07-22T03:51:24;97753.66;;;24.29;39.22
65227;BME280;51805;49.012;12.104;2023-07-22T03:53:50;97760.69;;;24.30;39.17
65227;BME280;51805;49.012;12.104;2023-07-22T03:56:15;97760.75;;;24.25;39.15
65227;BME280;51805;49.012;12.104;2023-07-22T03:58:40;97771.09;;;24.23;39.07
65227;BME280;51805;49.012;12.104;2023-07-22T04:01:06;97753.84;;;24.14;39.15
65227;BME280;51805;49.012;12.104;2023-07-22T04:03:31;97773.63;;;24.19;39.27
65227;BME280;51805;49.012;12.104;2023-07-22T04:05:56;97773.38;;;24.16;39.37
65227;BME280;51805;49.012;12.104;2023-07-22T04:08:22;97773.63;;;24.19;39.27
65227;BME280;51805;49.012;12.104;2023-07-22T04:10:54;97763.13;;;24.13;39.40
65227;BME280;51805;49.012;12.104;2023-07-22T04:13:19;97762.53;;;24.16;39.15
65227;BME280;51805;49.012;12.104;2023-07-22T04:15:45;97759.22;;;24.19;39.17
65227;BME280;51805;49.012;12.104;2023-07-22T04:18:10;97763.13;;;24.13;39.19
65227;BME280;51805;49.012;12.104;2023-07-22T04:20:35;97764.94;;;24.17;39.27
65227;BME280;51805;49.012;12.104;2023-07-22T04:23:01;97756.09;;;24.12;39.35
65227;BME280;51805;49.012;12.104;2023-07-22T04:25:26;97760.31;;;24.18;39.19
65227;BME280;51805;49.012;12.104;2023-07-22T04:27:51;97772.56;;;24.15;39.46
65227;BME280;51805;49.012;12.104;2023-07-22T04:30:16;97777.13;;;24.20;39.22
65227;BME280;51805;49.012;12.104;2023-07-22T04:32:42;97773.31;;;24.21;39.27
65227;BME280;51805;49.012;12.104;2023-07-22T04:35:07;97761.63;;;24.20;39.42
65227;BME280;51805;49.012;12.104;2023-07-22T04:37:33;97756.50;;;24.19;39.08
65227;BME280;51805;49.012;12.104;2023-07-22T04:39:58;97762.94;;;24.23;39.22
65227;BME280;51805;49.012;12.104;2023-07-22T04:42:23;97744.63;;;24.15;39.10
65227;BME280;51805;49.012;12.104;2023-07-22T04:44:48;97762.53;;;24.16;39.20
65227;BME280;51805;49.012;12.104;2023-07-22T04:47:14;97761.72;;;24.15;39.37
65227;BME280;51805;49.012;12.104;2023-07-22T04:49:39;97776.25;;;24.24;39.35
65227;BME280;51805;49.012;12.104;2023-07-22T04:52:05;97764.13;;;24.17;39.35
65227;BME280;51805;49.012;12.104;2023-07-22T04:54:30;97766.25;;;24.20;39.38
65227;BME280;51805;49.012;12.104;2023-07-22T04:56:55;97770.81;;;24.24;39.29
65227;BME280;51805;49.012;12.104;2023-07-22T04:59:21;97760.41;;;24.13;39.43
65227;BME280;51805;49.012;12.104;2023-07-22T05:01:46;97781.28;;;24.31;39.22
65227;BME280;51805;49.012;12.104;2023-07-22T05:04:11;97766.25;;;24.20;39.25
65227;BME280;51805;49.012;12.104;2023-07-22T05:06:36;97781.81;;;24.14;39.63
65227;BME280;51805;49.012;12.104;2023-07-22T05:09:02;97771.56;;;24.11;39.72
65227;BME280;51805;49.012;12.104;2023-07-22T05:11:27;97768.38;;;24.23;39.57
65227;BME280;51805;49.012;12.104;2023-07-22T05:13:52;97776.03;;;24.21;39.53
65227;BME280;51805;49.012;12.104;2023-07-22T05:16:17;97771.91;;;24.05;39.76
65227;BME280;51805;49.012;12.104;2023-07-22T05:18:43;97773.91;;;24.18;39.64
65227;BME280;51805;49.012;12.104;2023-07-22T05:21:08;97775.38;;;24.10;39.78
65227;BME280;51805;49.012;12.104;2023-07-22T05:23:33;97769.25;;;24.00;39.79
65227;BME280;51805;49.012;12.104;2023-07-22T05:25:59;97780.19;;;23.95;39.91
65227;BME280;51805;49.012;12.104;2023-07-22T05:28:24;97761.66;;;24.02;39.73
65227;BME280;51805;49.012;12.104;2023-07-22T05:30:49;97771.13;;;24.04;39.81
65227;BME280;51805;49.012;12.104;2023-07-22T05:33:14;97766.13;;;24.11;39.74
65227;BME280;51805;49.012;12.104;2023-07-22T05:35:40;97773.31;;;24.21;39.44
65227;BME280;51805;49.012;12.104;2023-07-22T05:38:05;97777.28;;;24.28;39.60
65227;BME280;51805;49.012;12.104;2023-07-22T05:40:30;97781.28;;;24.31;39.46
65227;BME280;51805;49.012;12.104;2023-07-22T05:42:56;97781.88;;;24.28;39.41
65227;BME280;51805;49.012;12.104;2023-07-22T05:45:21;97775.22;;;24.20;39.53
65227;BME280;51805;49.012;12.104;2023-07-22T05:47:46;97784.25;;;24.34;39.83
65227;BME280;51805;49.012;12.104;2023-07-22T05:50:11;97786.28;;;24.42;39.14
65227;BME280;51805;49.012;12.104;2023-07-22T05:52:37;97792.66;;;24.51;39.27
65227;BME280;51805;49.012;12.104;2023-07-22T05:55:02;97787.00;;;24.48;39.19
65227;BME280;51805;49.012;12.104;2023-07-22T05:57:27;97779.44;;;24.45;39.35
65227;BME280;51805;49.012;12.104;2023-07-22T05:59:53;97791.06;;;24.50;39.36
65227;BME280;51805;49.012;12.104;2023-07-22T06:02:18;97796.19;;;24.52;39.39
65227;BME280;51805;49.012;12.104;2023-07-22T06:04:43;97790.03;;;24.46;39.34
65227;BME280;51805;49.012;12.104;2023-07-22T06:07:09;97795.97;;;24.48;39.09
65227;BME280;51805;49.012;12.104;2023-07-22T06:09:34;97802.13;;;24.54;39.27
65227;BME280;51805;49.012;12.104;2023-07-22T06:11:59;97805.94;;;24.53;39.17
65227;BME280;51805;49.012;12.104;2023-07-22T06:14:25;97809.78;;;24.52;39.34
65227;BME280;51805;49.012;12.104;2023-07-22T06:16:50;97818.06;;;24.60;39.22
65227;BME280;51805;49.012;12.104;2023-07-22T06:19:15;97810.78;;;24.56;39.33
65227;BME280;51805;49.012;12.104;2023-07-22T06:21:40;97810.56;;;24.52;39.21
65227;BME280;51805;49.012;12.104;2023-07-22T06:24:06;97820.47;;;24.62;39.38
65227;BME280;51805;49.012;12.104;2023-07-22T06:26:31;97817.22;;;24.60;39.34
65227;BME280;51805;49.012;12.104;2023-07-22T06:28:56;97817.22;;;24.60;39.25
65227;BME280;51805;49.012;12.104;2023-07-22T06:31:21;97824.78;;;24.63;39.39
65227;BME280;51805;49.012;12.104;2023-07-22T06:33:47;97811.00;;;24.59;39.43
65227;BME280;51805;49.012;12.104;2023-07-22T06:36:12;97808.59;;;24.58;39.40
65227;BME280;51805;49.012;12.104;2023-07-22T06:38:37;97810.41;;;24.63;39.19
65227;BME280;51805;49.012;12.104;2023-07-22T06:41:02;97823.16;;;24.67;39.27
65227;BME280;51805;49.012;12.104;2023-07-22T06:43:28;97822.91;;;24.63;39.40
65227;BME280;51805;49.012;12.104;2023-07-22T06:45:53;97819.31;;;24.68;39.36
65227;BME280;51805;49.012;12.104;2023-07-22T06:48:18;97822.03;;;24.68;39.39
65227;BME280;51805;49.012;12.104;2023-07-22T06:50:48;97809.00;;;24.65;39.48
65227;BME280;51805;49.012;12.104;2023-07-22T06:53:13;97818.22;;;24.69;39.52
65227;BME280;51805;49.012;12.104;2023-07-22T06:55:38;97818.72;;;24.71;39.61
65227;BME280;51805;49.012;12.104;2023-07-22T06:58:04;97820.34;;;24.72;39.66
65227;BME280;51805;49.012;12.104;2023-07-22T07:00:29;97812.69;;;24.74;39.72
65227;BME280;51805;49.012;12.104;2023-07-22T07:02:54;97819.75;;;24.75;39.95
65227;BME280;51805;49.012;12.104;2023-07-22T07:05:20;97822.97;;;24.77;39.79
65227;BME280;51805;49.012;12.104;2023-07-22T07:07:45;97824.59;;;24.78;39.81
65227;BME280;51805;49.012;12.104;2023-07-22T07:10:10;97814.91;;;24.72;39.79
65227;BME280;51805;49.012;12.104;2023-07-22T07:12:35;97816.53;;;24.73;39.86
65227;BME280;51805;49.012;12.104;2023-07-22T07:15:01;97819.25;;;24.73;40.09
65227;BME280;51805;49.012;12.104;2023-07-22T07:17:26;97814.31;;;24.75;39.95
65227;BME280;51805;49.012;12.104;2023-07-22T07:19:51;97801.41;;;24.67;40.07
65227;BME280;51805;49.012;12.104;2023-07-22T07:22:16;97819.34;;;24.82;39.98
65227;BME280;51805;49.012;12.104;2023-07-22T07:24:42;97811.09;;;24.73;39.75
65227;BME280;51805;49.012;12.104;2023-07-22T07:27:07;97822.97;;;24.77;39.74
65227;BME280;51805;49.012;12.104;2023-07-22T07:29:32;97820.16;;;24.82;40.11
65227;BME280;51805;49.012;12.104;2023-07-22T07:31:58;97798.41;;;24.69;39.82
65227;BME280;51805;49.012;12.104;2023-07-22T07:34:23;97825.84;;;24.86;39.72
65227;BME280;51805;49.012;12.104;2023-07-22T07:36:48;97816.53;;;24.73;39.65
65227;BME280;51805;49.012;12.104;2023-07-22T07:39:13;97830.44;;;24.85;39.60
65227;BME280;51805;49.012;12.104;2023-07-22T07:41:39;97813.09;;;24.68;39.37
65227;BME280;51805;49.012;12.104;2023-07-22T07:44:04;97818.13;;;24.74;39.25
65227;BME280;51805;49.012;12.104;2023-07-22T07:46:29;97832.88;;;24.87;39.05
65227;BME280;51805;49.012;12.104;2023-07-22T07:48:56;97821.63;;;24.93;38.90
65227;BME280;51805;49.012;12.104;2023-07-22T07:51:23;97829.59;;;25.03;38.63
65227;BME280;51805;49.012;12.104;2023-07-22T07:53:49;97827.38;;;25.05;38.59
65227;BME280;51805;49.012;12.104;2023-07-22T07:56:16;97829.50;;;25.08;38.65
65227;BME280;51805;49.012;12.104;2023-07-22T07:58:42;97829.50;;;25.08;38.36
65227;BME280;51805;49.012;12.104;2023-07-22T08:01:07;97835.47;;;25.10;38.26
65227;BME280;51805;49.012;12.104;2023-07-22T08:03:34;97831.13;;;25.09;38.19
65227;BME280;51805;49.012;12.104;2023-07-22T08:05:59;97842.00;;;25.09;38.06
65227;BME280;51805;49.012;12.104;2023-07-22T08:08:25;97824.66;;;25.05;37.96
65227;BME280;51805;49.012;12.104;2023-07-22T08:11:03;97828.28;;;25.01;37.74
65227;BME280;51805;49.012;12.104;2023-07-22T08:13:29;97829.50;;;25.08;37.23
65227;BME280;51805;49.012;12.104;2023-07-22T08:15:54;97838.19;;;25.10;37.74
65227;BME280;51805;49.012;12.104;2023-07-22T08:18:19;97840.59;;;25.12;37.28
65227;BME280;51805;49.012;12.104;2023-07-22T08:20:45;97831.72;;;25.06;37.28
65227;BME280;51805;49.012;12.104;2023-07-22T08:23:11;97815.59;;;24.96;37.36
65227;BME280;51805;49.012;12.104;2023-07-22T08:25:36;97819.22;;;25.05;36.73
65227;BME280;51805;49.012;12.104;2023-07-22T08:28:01;97817.03;;;25.07;36.85
65227;BME280;51805;49.012;12.104;2023-07-22T08:30:26;97825.25;;;25.02;36.56
65227;BME280;51805;49.012;12.104;2023-07-22T08:32:52;97815.00;;;24.99;36.57
65227;BME280;51805;49.012;12.104;2023-07-22T08:35:17;97814.91;;;25.04;36.42
65227;BME280;51805;49.012;12.104;2023-07-22T08:37:42;97800.09;;;24.97;36.04
65227;BME280;51805;49.012;12.104;2023-07-22T08:40:08;97812.19;;;25.04;36.13
65227;BME280;51805;49.012;12.104;2023-07-22T08:42:34;97820.06;;;25.19;36.24
65227;BME280;51805;49.012;12.104;2023-07-22T08:45:01;97808.19;;;25.15;36.25
65227;BME280;51805;49.012;12.104;2023-07-22T08:47:29;97822.47;;;25.21;36.06
65227;BME280;51805;49.012;12.104;2023-07-22T08:49:57;97815.31;;;25.25;36.32
65227;BME280;51805;49.012;12.104;2023-07-22T08:52:23;97824.16;;;25.35;35.21
65227;BME280;51805;49.012;12.104;2023-07-22T08:54:49;97819.69;;;25.26;35.20
65227;BME280;51805;49.012;12.104;2023-07-22T08:57:15;97804.75;;;25.23;35.25
65227;BME280;51805;49.012;12.104;2023-07-22T08:59:41;97820.31;;;25.36;35.11
65227;BME280;51805;49.012;12.104;2023-07-22T09:02:10;97810.03;;;25.33;34.70
65227;BME280;51805;49.012;12.104;2023-07-22T09:04:37;97807.59;;;25.32;35.23
65227;BME280;51805;49.012;12.104;2023-07-22T09:07:02;97801.34;;;25.31;34.75
65227;BME280;51805;49.012;12.104;2023-07-22T09:09:28;97796.34;;;25.38;34.88
65227;BME280;51805;49.012;12.104;2023-07-22T09:11:53;97802.78;;;25.42;34.69
65227;BME280;51805;49.012;12.104;2023-07-22T09:14:19;97799.47;;;25.45;34.95
65227;BME280;51805;49.012;12.104;2023-07-22T09:16:45;97790.47;;;25.31;34.32
65227;BME280;51805;49.012;12.104;2023-07-22T09:19:10;97810.44;;;25.40;34.54
65227;BME280;51805;49.012;12.104;2023-07-22T09:21:35;97808.31;;;25.37;34.34
65227;BME280;51805;49.012;12.104;2023-07-22T09:24:01;97793.63;;;25.38;34.32
65227;BME280;51805;49.012;12.104;2023-07-22T09:26:26;97792.69;;;25.29;34.95
65227;BME280;51805;49.012;12.104;2023-07-22T09:28:54;97806.72;;;25.36;34.35
65227;BME280;51805;49.012;12.104;2023-07-22T09:31:24;97797.31;;;25.15;34.49
65227;BME280;51805;49.012;12.104;2023-07-22T09:33:49;97798.00;;;25.21;34.62
65227;BME280;51805;49.012;12.104;2023-07-22T09:36:15;97803.16;;;25.22;34.55
65227;BME280;51805;49.012;12.104;2023-07-22T09:38:40;97791.44;;;25.08;34.23
65227;BME280;51805;49.012;12.104;2023-07-22T09:41:06;97808.28;;;25.24;35.24
65227;BME280;51805;49.012;12.104;2023-07-22T09:43:31;97805.94;;;25.17;35.14
65227;BME280;51805;49.012;12.104;2023-07-22T09:46:05;97804.88;;;25.18;34.65
65227;BME280;51805;49.012;12.104;2023-07-22T09:48:39;97805.22;;;24.98;34.84
65227;BME280;51805;49.012;12.104;2023-07-22T09:51:04;97784.78;;;25.01;34.71
65227;BME280;51805;49.012;12.104;2023-07-22T09:53:29;97811.81;;;25.11;34.57
65227;BME280;51805;49.012;12.104;2023-07-22T09:55:55;97798.50;;;25.09;35.26
65227;BME280;51805;49.012;12.104;2023-07-22T09:58:20;97795.97;;;25.13;35.65
65227;BME280;51805;49.012;12.104;2023-07-22T10:00:50;97801.31;;;25.18;35.17
65227;BME280;51805;49.012;12.104;2023-07-22T10:03:16;97789.44;;;25.14;35.67
65227;BME280;51805;49.012;12.104;2023-07-22T10:05:45;97795.06;;;25.17;34.85
65227;BME280;51805;49.012;12.104;2023-07-22T10:08:12;97794.47;;;25.20;35.25
65227;BME280;51805;49.012;12.104;2023-07-22T10:10:38;97778.56;;;25.14;35.37
65227;BME280;51805;49.012;12.104;2023-07-22T10:13:05;97769.69;;;25.08;34.66
65227;BME280;51805;49.012;12.104;2023-07-22T10:15:32;97789.09;;;25.34;34.80
65227;BME280;51805;49.012;12.104;2023-07-22T10:17:57;97781.22;;;25.32;35.18
65227;BME280;51805;49.012;12.104;2023-07-22T10:20:23;97781.41;;;25.36;35.43
65227;BME280;51805;49.012;12.104;2023-07-22T10:22:50;97777.19;;;25.43;34.57
65227;BME280;51805;49.012;12.104;2023-07-22T10:25:17;97763.50;;;25.35;34.78
65227;BME280;51805;49.012;12.104;2023-07-22T10:27:44;97761.06;;;25.33;35.17
65227;BME280;51805;49.012;12.104;2023-07-22T10:30:10;97745.63;;;25.29;34.63
65227;BME280;51805;49.012;12.104;2023-07-22T10:32:45;97774.94;;;25.32;34.37
65227;BME280;51805;49.012;12.104;2023-07-22T10:35:13;97778.50;;;25.32;34.46
65227;BME280;51805;49.012;12.104;2023-07-22T10:37:44;97782.50;;;25.21;34.04
65227;BME280;51805;49.012;12.104;2023-07-22T10:40:26;97759.00;;;24.98;34.21
65227;BME280;51805;49.012;12.104;2023-07-22T10:43:04;97789.53;;;25.22;33.98
65227;BME280;51805;49.012;12.104;2023-07-22T10:45:31;97779.78;;;25.21;33.94
65227;BME280;51805;49.012;12.104;2023-07-22T10:48:06;97780.38;;;25.18;33.92
65227;BME280;51805;49.012;12.104;2023-07-22T10:50:48;97777.16;;;25.16;34.19
65227;BME280;51805;49.012;12.104;2023-07-22T11:04:21;97765.50;;;25.29;34.73
65227;BME280;51805;49.012;12.104;2023-07-22T11:11:53;97760.38;;;25.41;33.21
65227;BME280;51805;49.012;12.104;2023-07-22T11:14:23;97751.41;;;25.41;33.00
65227;BME280;51805;49.012;12.104;2023-07-22T11:16:49;97752.53;;;25.40;34.27
65227;BME280;51805;49.012;12.104;2023-07-22T11:19:15;97740.59;;;25.36;33.40
65227;BME280;51805;49.012;12.104;2023-07-22T11:21:44;97730.84;;;25.35;34.13
65227;BME280;51805;49.012;12.104;2023-07-22T11:24:10;97717.72;;;25.23;33.29
65227;BME280;51805;49.012;12.104;2023-07-22T11:26:37;97742.94;;;25.42;33.85
65227;BME280;51805;49.012;12.104;2023-07-22T11:29:03;97736.88;;;25.45;32.94
65227;BME280;51805;49.012;12.104;2023-07-22T11:34:00;97723.19;;;25.37;33.17
65227;BME280;51805;49.012;12.104;2023-07-22T11:36:26;97733.78;;;25.38;33.01
65227;BME280;51805;49.012;12.104;2023-07-22T11:38:52;97733.25;;;25.36;32.70
65227;BME280;51805;49.012;12.104;2023-07-22T11:41:17;97729.44;;;25.37;32.96
65227;BME280;51805;49.012;12.104;2023-07-22T11:43:42;97727.50;;;25.51;33.81
65227;BME280;51805;49.012;12.104;2023-07-22T11:46:08;97714.50;;;25.48;32.52
65227;BME280;51805;49.012;12.104;2023-07-22T11:48:33;97699.03;;;25.35;32.80
65227;BME280;51805;49.012;12.104;2023-07-22T11:50:59;97693.56;;;25.35;33.29
65227;BME280;51805;49.012;12.104;2023-07-22T11:53:28;97690.94;;;25.30;34.01
65227;BME280;51805;49.012;12.104;2023-07-22T11:55:55;97723.88;;;25.56;33.40
65227;BME280;51805;49.012;12.104;2023-07-22T11:58:27;97711.69;;;25.53;33.31
65227;BME280;51805;49.012;12.104;2023-07-22T12:01:06;97716.53;;;25.56;33.27
65227;BME280;51805;49.012;12.104;2023-07-22T12:03:34;97702.41;;;25.54;33.38
65227;BME280;51805;49.012;12.104;2023-07-22T12:06:03;97709.34;;;25.60;33.42
65227;BME280;51805;49.012;12.104;2023-07-22T12:08:29;97692.63;;;25.53;33.22
65227;BME280;51805;49.012;12.104;2023-07-22T12:11:00;97688.31;;;25.52;33.86
65227;BME280;51805;49.012;12.104;2023-07-22T12:13:25;97708.63;;;25.68;33.43
65227;BME280;51805;49.012;12.104;2023-07-22T12:16:00;97704.81;;;25.69;33.85
65227;BME280;51805;49.012;12.104;2023-07-22T12:18:26;97691.41;;;25.59;33.85
65227;BME280;51805;49.012;12.104;2023-07-22T12:20:51;97672.00;;;25.52;33.28
65227;BME280;51805;49.012;12.104;2023-07-22T12:23:16;97680.03;;;25.57;33.72
65227;BME280;51805;49.012;12.104;2023-07-22T12:25:41;97676.22;;;25.58;33.72
65227;BME280;51805;49.012;12.104;2023-07-22T12:28:07;97674.97;;;25.64;32.44
65227;BME280;51805;49.012;12.104;2023-07-22T12:30:32;97668.94;;;25.67;32.66
65227;BME280;51805;49.012;12.104;2023-07-22T12:32:58;97662.66;;;25.67;33.38
65227;BME280;51805;49.012;12.104;2023-07-22T12:35:23;97667.06;;;25.76;33.40
65227;BME280;51805;49.012;12.104;2023-07-22T12:37:48;97650.94;;;25.80;33.13
65227;BME280;51805;49.012;12.104;2023-07-22T12:40:14;97661.28;;;25.91;31.30
65227;BME280;51805;49.012;12.104;2023-07-22T12:42:39;97652.13;;;25.87;31.11
65227;BME280;51805;49.012;12.104;2023-07-22T12:45:05;97652.41;;;25.99;30.35
65227;BME280;51805;49.012;12.104;2023-07-22T12:47:31;97663.66;;;26.06;29.50
65227;BME280;51805;49.012;12.104;2023-07-22T12:49:56;97641.72;;;26.03;29.65
65227;BME280;51805;49.012;12.104;2023-07-22T12:52:21;97644.25;;;25.99;30.73
65227;BME280;51805;49.012;12.104;2023-07-22T12:54:46;97647.00;;;26.08;30.47
65227;BME280;51805;49.012;12.104;2023-07-22T12:57:12;97646.41;;;26.11;29.70
65227;BME280;51805;49.012;12.104;2023-07-22T12:59:37;97652.03;;;26.14;30.15
65227;BME280;51805;49.012;12.104;2023-07-22T13:02:02;97641.13;;;26.14;29.20